Terminal Aerodrome Forecast
Issued by NWS

Home | Current Version | Previous Version | Text Only | Print | Product List | Glossary On
Versions: 1 2 3 4 5 6 7 8 9 10 11 12 13 14 15 16 17 18 19 20 21 22 23 24 25 26 27 28 29
000
FTUS43 KILX 241500 AAB
TAFCMI
TAF AMD
KCMI 241513Z 2415/2512 26025G37KT P6SM VCSH BKN012 OVC018
      TEMPO 2415/2417 5SM -SN BR OVC009
     FM241700 27024G34KT P6SM OVC010
      TEMPO 2417/2419 OVC007
     FM242200 24016G26KT P6SM OVC015
     FM250200 25013KT P6SM OVC020=

USA.gov is the U.S. government's official web portal to all federal, state and local government web resources and services.